Paris, TX

4:28 AM CDT on September 05, 2015 (GMT -0500)
Paris, Texas | | Change Station
CLOSE
Current Station
Personal Weather Station
Location: Paris, TX
Elevation: 607 ft
Nearby Weather Stations

Elev 607 ft 33.66 °N, 95.57 °W | Updated 4 minutes ago

Clear
Clear
76.3 °F
Feels Like 78 °F
N
0.0
Wind Variable Wind from South

Today
High -- | Low -- °F
--% Chance of Precip.
Yesterday
High -- | Low -- °F
Precip. -- in
6:58 AM 7:42 PM
Waning Gibbous, 50% visible
Pressure 29.98 in
Visibility 10.0 miles
Clouds Clear
Heat Index 78 °F
Dew Point 68 °F
Humidity 75%
Rainfall 0.00 in
Snow Depth Not available.
UV 0 out of 12
Pollen 10.20 out of 12
Air Quality Not available.
Flu Activity Not available.
METAR KPRX 050915Z 14003KT 10SM CLR 24/18 A2998 RMK AO1
Pressure 29.98 in
Visibility 10.0 miles
Clouds Clear
Heat Index 78 °F
Dew Point 68 °F
Humidity 75%
Rainfall 0.00 in
Snow Depth Not available.
UV 0 out of 12
Pollen 10.20 out of 12
Air Quality Not available.
Flu Activity Not available.
METAR KPRX 050915Z 14003KT 10SM CLR 24/18 A2998 RMK AO1

10-Day Weather Forecast

×

Almanac

Astronomy

Sep. 05, 2015 Rise Set
Actual Time
Civil Twilight
Nautical Twilight
Astronomical Twilight
Moon
Length of Visible Light
Length of Day
Tomorrow will be .
, % of the Moon is Illuminated

Today's Extremes

State Highs State Lows

Community

WunderPhotos

Upload Photos

1,852,440 photos uploaded!

WunderBlogs® & News

Nearby

Air Quality

  Air Quality AQ Index Pollutant
Not available.

Snow Depth

Station Depth Elevation

Earthquake Activity

City Distance Mag. Time & Date
Minimum magnitude displayed is 2.5.

Coastal Water Temperatures

Place Temperature

Stations

Nearby Weather Stations

Station Location Temp. Windchill Dew Point Humidity Wind Precip. Elev Updated Type